Fairfield, TX

8:16 AM CDT on April 01, 2015 (GMT -0500)
Sam's Restaurant | | Change Station
CLOSE
Current Station
Personal Weather Station
Location: Fairfield, TX
Elevation: 474 ft
Nearby Weather Stations

Elev 474 ft 31.73 °N, 96.15 °W | Updated 0 second ago

Mostly Cloudy
Mostly Cloudy
67.7 °F
Feels Like 67.7 °F
N
0.0
Wind Variable Wind from SSE
Gusts 5.0 mph

Today
High -- | Low -- °F
--% Chance of Precip.
Yesterday
High -- | Low -- °F
Precip. -- in
7:13 AM 7:44 PM
Waxing Gibbous, 92% visible
Pressure 29.94 in
Visibility 7.0 miles
Clouds Scattered Clouds 800 ft
Mostly Cloudy 1300 ft
Mostly Cloudy 1800 ft
Dew Point 66 °F
Humidity 93%
Rainfall 0.00 in
Snow Depth Not available.
UV 0 out of 12
Pollen 10.70 out of 12
Air Quality Not available.
Flu Activity Not available.
METAR KLXY 011235Z AUTO 16008KT 7SM SCT008 BKN013 BKN018 19/18 A2994 RMK AO2 LTG DSNT N T01900182

More Conditions Fewer Conditions

Pressure 29.94 in
Visibility 7.0 miles
Clouds Scattered Clouds 800 ft
Mostly Cloudy 1300 ft
Mostly Cloudy 1800 ft
Dew Point 66 °F
Humidity 93%
Rainfall 0.00 in
Snow Depth Not available.
UV 0 out of 12
Pollen 10.70 out of 12
Air Quality Not available.
Flu Activity Not available.
METAR KLXY 011235Z AUTO 16008KT 7SM SCT008 BKN013 BKN018 19/18 A2994 RMK AO2 LTG DSNT N T01900182

More Conditions Fewer Conditions

Nowcast | as of 7:31 am CDT on April 1, 2015

A broken line of thunderstorms extended from Maypearl to Muenster and was moving northeast at 25 mph. These storms will affect Denton...Irving...Dallas...Gainesville...McKinney and Sherman through 830 am. The storms will produce dangerous lightning... small hail and heavy rainfall. Rain amounts will average up to one inch from the storms but less the one quarter of an inch from the showers. Elsewhere...scattered showers and isolated thunderstorms will affect areas west through north of the metroplex through mid morning. Otherwise...it will be a mild and humid morning with mostly cloudy skies.

×

10-Day Weather Forecast

Almanac

Astronomy

Apr. 01, 2015 Rise Set
Actual Time
Civil Twilight
Nautical Twilight
Astronomical Twilight
Moon
Length of Visible Light
Length of Day
Tomorrow will be .
, % of the Moon is Illuminated

Today's Extremes

State Highs State Lows

Community

WunderPhotos

Upload Photos

1,809,949 photos uploaded!

WunderBlogs® & News

Nearby

Air Quality

  Air Quality AQ Index Pollutant
Not available.

Snow Depth

Station Depth Elevation

Earthquake Activity

City Distance Mag. Time & Date
Minimum magnitude displayed is 2.5.

Coastal Water Temperatures

Place Temperature

Stations

Nearby Weather Stations

Station Location Temp. Windchill Dew Point Humidity Wind Precip. Elev Updated Type